createdAt,value
2024-04-18T00:02:19.407Z,1.04
2024-04-18T00:04:48.412Z,1.01
2024-04-18T00:07:16.010Z,0.96
2024-04-18T00:09:42.963Z,0.91
2024-04-18T00:12:10.568Z,0.86
2024-04-18T00:14:37.299Z,0.83
2024-04-18T00:17:04.495Z,0.80
2024-04-18T00:19:32.674Z,0.78
2024-04-18T00:22:00.276Z,0.77
2024-04-18T00:24:32.375Z,0.76
2024-04-18T00:26:59.017Z,0.77
2024-04-18T00:29:25.637Z,0.79
2024-04-18T00:31:53.011Z,0.82
2024-04-18T00:34:19.859Z,0.83
2024-04-18T00:36:47.160Z,0.83
2024-04-18T00:39:19.420Z,0.83
2024-04-18T00:41:46.819Z,0.86
2024-04-18T00:44:14.811Z,0.90
2024-04-18T00:46:41.540Z,0.94
2024-04-18T00:49:08.755Z,0.98
2024-04-18T00:51:35.946Z,1.02
2024-04-18T00:54:05.087Z,1.06
2024-04-18T00:56:34.021Z,1.10
2024-04-18T00:59:03.895Z,1.11
2024-04-18T01:01:31.699Z,1.13
2024-04-18T01:03:59.890Z,1.13
2024-04-18T01:06:31.600Z,1.16
2024-04-18T01:09:00.920Z,1.14
2024-04-18T01:11:27.646Z,1.14
2024-04-18T01:14:11.095Z,1.13
2024-04-18T01:16:45.897Z,1.11
2024-04-18T01:19:21.173Z,1.10
2024-04-18T01:21:48.473Z,1.10
2024-04-18T01:24:15.667Z,1.08
2024-04-18T01:26:44.438Z,1.08
2024-04-18T01:29:11.615Z,1.06
2024-04-18T01:31:43.066Z,1.05
2024-04-18T01:34:10.751Z,1.02
2024-04-18T01:36:40.671Z,1.01
2024-04-18T01:39:08.855Z,1.00
2024-04-18T01:41:37.277Z,0.97
2024-04-18T01:44:04.505Z,0.94
2024-04-18T01:46:34.148Z,0.92
2024-04-18T01:49:00.847Z,0.89
2024-04-18T01:51:29.084Z,0.88
2024-04-18T01:53:56.159Z,0.84
2024-04-18T01:56:23.911Z,0.81
2024-04-18T01:58:50.450Z,0.78
2024-04-18T02:01:25.073Z,0.77
2024-04-18T02:03:52.596Z,0.76
2024-04-18T02:06:21.150Z,0.73
2024-04-18T02:08:49.533Z,0.71
2024-04-18T02:11:16.275Z,0.68
2024-04-18T02:13:45.439Z,0.65
2024-04-18T02:16:18.755Z,0.63
2024-04-18T02:18:46.686Z,0.59
2024-04-18T02:21:13.771Z,0.56
2024-04-18T02:23:42.637Z,0.54
2024-04-18T02:26:09.591Z,0.52
2024-04-18T02:28:37.629Z,0.51
2024-04-18T02:31:10.434Z,0.50
2024-04-18T02:33:37.051Z,0.49
2024-04-18T02:36:04.316Z,0.48
2024-04-18T02:38:33.283Z,0.47
2024-04-18T02:41:08.079Z,0.44
2024-04-18T02:43:38.421Z,0.38
2024-04-18T02:46:06.063Z,0.33
2024-04-18T02:48:34.377Z,0.29
2024-04-18T02:51:01.384Z,0.27
2024-04-18T02:53:28.261Z,0.24
2024-04-18T02:55:56.005Z,0.23
2024-04-18T02:58:23.390Z,0.23
2024-04-18T03:00:50.828Z,0.25
2024-04-18T03:03:18.814Z,0.25
2024-04-18T03:05:45.569Z,0.25
2024-04-18T03:08:12.104Z,0.25
2024-04-18T03:10:49.668Z,0.24
2024-04-18T03:13:18.741Z,0.21
2024-04-18T03:15:48.424Z,0.19
2024-04-18T03:18:18.981Z,0.17
2024-04-18T03:20:53.652Z,0.15
2024-04-18T03:23:20.905Z,0.13
2024-04-18T03:25:48.738Z,0.12
2024-04-18T03:28:16.729Z,0.10
2024-04-18T03:30:43.773Z,0.07
2024-04-18T03:33:10.614Z,0.05
2024-04-18T03:35:42.361Z,0.02
2024-04-18T03:38:11.658Z,-0.02
2024-04-18T03:40:38.770Z,-0.05
2024-04-18T03:43:05.551Z,-0.06
2024-04-18T03:45:35.870Z,-0.06
2024-04-18T03:48:02.603Z,-0.10
2024-04-18T03:50:29.157Z,-0.14
2024-04-18T03:52:57.918Z,-0.13
2024-04-18T03:55:25.266Z,-0.15
2024-04-18T03:57:52.055Z,-0.15
2024-04-18T04:00:19.244Z,-0.16
2024-04-18T04:02:46.080Z,-0.18
2024-04-18T04:05:14.881Z,-0.18
2024-04-18T04:07:42.500Z,-0.20
2024-04-18T04:10:14.632Z,-0.24
2024-04-18T04:12:42.786Z,-0.24
2024-04-18T04:15:13.203Z,-0.25
2024-04-18T04:17:48.636Z,-0.25
2024-04-18T04:20:15.676Z,-0.24
2024-04-18T04:22:43.259Z,-0.23
2024-04-18T04:25:10.680Z,-0.23
2024-04-18T04:27:37.446Z,-0.22
2024-04-18T04:30:06.932Z,-0.24
2024-04-18T04:32:35.113Z,-0.25
2024-04-18T04:35:02.665Z,-0.26
2024-04-18T04:37:31.515Z,-0.28
2024-04-18T04:39:58.211Z,-0.31
2024-04-18T04:42:24.958Z,-0.31
2024-04-18T04:44:53.512Z,-0.30
2024-04-18T04:47:20.338Z,-0.29
2024-04-18T04:49:47.766Z,-0.29
2024-04-18T04:52:15.940Z,-0.28
2024-04-18T04:54:44.476Z,-0.28
2024-04-18T04:57:14.765Z,-0.26
2024-04-18T04:59:44.678Z,-0.23
2024-04-18T05:02:11.201Z,-0.20
2024-04-18T05:04:38.247Z,-0.18
2024-04-18T05:07:04.882Z,-0.19
2024-04-18T05:09:31.358Z,-0.17
2024-04-18T05:12:02.229Z,-0.13
2024-04-18T05:14:30.943Z,-0.09
2024-04-18T05:17:09.078Z,-0.07
2024-04-18T05:19:38.354Z,-0.03
2024-04-18T05:22:04.752Z,0.01
2024-04-18T05:24:34.656Z,0.05
2024-04-18T05:27:05.316Z,0.08
2024-04-18T05:29:51.674Z,0.13
2024-04-18T05:32:18.640Z,0.17
2024-04-18T05:34:48.781Z,0.21
2024-04-18T05:37:15.619Z,0.23
2024-04-18T05:39:43.271Z,0.26
2024-04-18T05:42:11.189Z,0.28
2024-04-18T05:44:40.983Z,0.31
2024-04-18T05:47:16.842Z,0.35
2024-04-18T05:49:43.741Z,0.41
2024-04-18T05:52:10.914Z,0.46
2024-04-18T05:54:38.321Z,0.47
2024-04-18T05:57:09.390Z,0.48
2024-04-18T05:59:37.516Z,0.51
2024-04-18T06:02:04.210Z,0.57
2024-04-18T06:04:30.615Z,0.65
2024-04-18T06:06:59.513Z,0.74
2024-04-18T06:09:26.252Z,0.80
2024-04-18T06:11:54.499Z,0.84
2024-04-18T06:14:21.278Z,0.90
2024-04-18T06:16:48.758Z,0.98
2024-04-18T06:19:15.361Z,1.05
2024-04-18T06:21:44.365Z,1.10
2024-04-18T06:24:12.978Z,1.15
2024-04-18T06:26:42.490Z,1.23
2024-04-18T06:29:11.863Z,1.33
2024-04-18T06:31:42.588Z,1.42
2024-04-18T06:34:09.085Z,1.50
2024-04-18T06:36:35.963Z,1.55
2024-04-18T06:39:02.570Z,1.61
2024-04-18T06:41:29.088Z,1.69
2024-04-18T06:43:57.622Z,1.77
2024-04-18T06:46:26.810Z,1.85
2024-04-18T06:48:54.611Z,1.95
2024-04-18T06:51:21.401Z,2.00
2024-04-18T06:53:50.270Z,2.06
2024-04-18T06:56:23.127Z,2.14
2024-04-18T06:58:53.605Z,2.23
2024-04-18T07:01:25.013Z,2.34
2024-04-18T07:06:36.549Z,2.51
2024-04-18T07:09:04.220Z,2.57
2024-04-18T07:11:33.590Z,2.65
2024-04-18T07:14:02.711Z,2.75
2024-04-18T07:16:37.062Z,2.83
2024-04-18T07:19:05.781Z,2.91
2024-04-18T07:21:33.790Z,3.01
2024-04-18T07:24:03.090Z,3.12
2024-04-18T07:26:29.869Z,3.21
2024-04-18T07:28:57.058Z,3.29
2024-04-18T07:31:31.167Z,3.36
2024-04-18T07:33:57.675Z,3.46
2024-04-18T07:36:24.602Z,3.57
2024-04-18T07:38:51.324Z,3.69
2024-04-18T07:41:24.234Z,3.80
2024-04-18T07:43:52.926Z,3.92
2024-04-18T07:46:19.800Z,4.00
2024-04-18T07:48:48.795Z,4.09
2024-04-18T07:51:15.397Z,4.20
2024-04-18T07:53:42.704Z,4.32
2024-04-18T07:56:09.877Z,4.42
2024-04-18T07:58:38.630Z,4.49
2024-04-18T08:01:07.698Z,4.58
2024-04-18T08:03:39.129Z,4.64
2024-04-18T08:06:09.740Z,4.74
2024-04-18T08:08:40.943Z,4.85
2024-04-18T08:13:47.717Z,5.08
2024-04-18T08:16:19.181Z,5.17
2024-04-18T08:18:48.956Z,5.23
2024-04-18T08:21:15.414Z,5.30
2024-04-18T08:23:51.706Z,5.42
2024-04-18T08:26:18.870Z,5.56
2024-04-18T08:28:45.880Z,5.67
2024-04-18T08:31:12.300Z,5.77
2024-04-18T08:33:40.050Z,5.85
2024-04-18T08:36:10.325Z,5.92
2024-04-18T08:38:37.702Z,6.03
2024-04-18T08:41:11.669Z,6.16
2024-04-18T08:43:41.138Z,6.33
2024-04-18T08:46:12.923Z,6.54
2024-04-18T08:48:41.201Z,6.76
2024-04-18T08:51:08.740Z,6.94
2024-04-18T08:53:35.757Z,7.12
2024-04-18T08:56:09.246Z,7.19
2024-04-18T08:58:38.286Z,7.13
2024-04-18T09:01:05.555Z,7.13
2024-04-18T09:03:32.391Z,7.16
2024-04-18T09:06:01.563Z,7.18
2024-04-18T09:08:29.123Z,7.22
2024-04-18T09:11:00.800Z,7.28
2024-04-18T09:13:27.614Z,7.37
2024-04-18T09:15:54.496Z,7.48
2024-04-18T09:18:23.117Z,7.65
2024-04-18T09:20:51.988Z,7.82
2024-04-18T09:23:19.098Z,7.98
2024-04-18T09:25:46.094Z,8.13
2024-04-18T09:28:20.188Z,8.24
2024-04-18T09:30:57.330Z,8.31
2024-04-18T09:33:26.373Z,8.34
2024-04-18T09:36:02.847Z,8.36
2024-04-18T09:38:35.171Z,8.50
2024-04-18T09:41:39.982Z,8.66
2024-04-18T09:44:20.483Z,8.78
2024-04-18T09:46:50.687Z,8.89
2024-04-18T09:49:19.246Z,8.99
2024-04-18T09:51:49.210Z,9.13
2024-04-18T09:54:18.771Z,9.27
2024-04-18T09:56:49.818Z,9.38
2024-04-18T09:59:17.858Z,9.46
2024-04-18T10:01:46.035Z,9.41
2024-04-18T10:04:12.634Z,9.36
2024-04-18T10:06:43.993Z,9.36
2024-04-18T10:09:18.831Z,9.39
2024-04-18T10:11:47.792Z,9.48
2024-04-18T10:14:15.275Z,9.49
2024-04-18T10:16:50.434Z,9.46
2024-04-18T10:19:23.093Z,9.42
2024-04-18T10:22:11.089Z,9.47
2024-04-18T10:24:50.884Z,9.64
2024-04-18T10:27:26.084Z,9.86
2024-04-18T10:29:57.005Z,10.18
2024-04-18T10:32:30.115Z,10.38
2024-04-18T10:35:01.425Z,10.44
2024-04-18T10:37:28.870Z,10.54
2024-04-18T10:39:58.083Z,10.56
2024-04-18T10:42:25.727Z,10.50
2024-04-18T10:44:52.936Z,10.38
2024-04-18T10:47:22.138Z,10.26
2024-04-18T10:49:52.493Z,10.08
2024-04-18T10:52:19.223Z,9.94
2024-04-18T10:54:47.237Z,9.83
2024-04-18T10:57:14.441Z,9.72
2024-04-18T10:59:47.715Z,9.62
2024-04-18T11:02:14.802Z,9.52
2024-04-18T11:04:43.199Z,9.44
2024-04-18T11:07:12.642Z,9.37
2024-04-18T11:09:41.421Z,9.32
2024-04-18T11:12:11.016Z,9.28
2024-04-18T11:14:39.764Z,9.32
2024-04-18T11:17:07.414Z,9.49
2024-04-18T11:19:35.318Z,9.71
2024-04-18T11:22:04.859Z,10.06
2024-04-18T11:24:34.504Z,10.49
2024-04-18T11:27:07.868Z,10.91
2024-04-18T11:29:35.171Z,11.25
2024-04-18T11:32:10.819Z,11.51
2024-04-18T11:34:43.137Z,11.62
2024-04-18T11:37:12.761Z,11.54
2024-04-18T11:39:44.871Z,11.40
2024-04-18T11:42:19.777Z,11.34
2024-04-18T11:44:46.361Z,11.41
2024-04-18T11:47:14.670Z,11.39
2024-04-18T11:49:43.309Z,11.29
2024-04-18T11:52:10.363Z,11.14
2024-04-18T11:54:38.798Z,10.99
2024-04-18T11:57:06.647Z,10.85
2024-04-18T11:59:35.008Z,10.72
2024-04-18T12:02:06.203Z,10.60
2024-04-18T12:04:33.028Z,10.48
2024-04-18T12:06:59.672Z,10.36
2024-04-18T12:09:27.627Z,10.24
2024-04-18T12:11:54.712Z,10.15
2024-04-18T12:14:21.278Z,10.05
2024-04-18T12:16:47.994Z,9.97
2024-04-18T12:19:14.487Z,9.91
2024-04-18T12:21:41.181Z,9.87
2024-04-18T12:24:07.785Z,9.81
2024-04-18T12:26:35.580Z,9.72
2024-04-18T12:29:03.895Z,9.64
2024-04-18T12:31:30.892Z,9.56
2024-04-18T12:33:57.685Z,9.49
2024-04-18T12:36:26.707Z,9.47
2024-04-18T12:38:53.822Z,9.48
2024-04-18T12:41:24.806Z,9.48
2024-04-18T12:43:52.677Z,9.50
2024-04-18T12:46:23.653Z,9.57
2024-04-18T12:48:52.329Z,9.76
2024-04-18T12:51:19.114Z,10.05
2024-04-18T12:53:46.064Z,10.43
2024-04-18T12:56:13.683Z,10.78
2024-04-18T12:58:41.095Z,11.04
2024-04-18T13:01:13.286Z,11.18
2024-04-18T13:03:42.297Z,11.19
2024-04-18T13:06:09.832Z,11.18
2024-04-18T13:08:38.707Z,11.14
2024-04-18T13:11:09.121Z,11.13
2024-04-18T13:13:35.854Z,11.08
2024-04-18T13:16:07.861Z,11.06
2024-04-18T13:18:37.259Z,11.01
2024-04-18T13:21:04.330Z,10.96
2024-04-18T13:23:30.972Z,10.89
2024-04-18T13:26:00.483Z,10.82
2024-04-18T13:28:27.022Z,10.75
2024-04-18T13:30:57.624Z,10.64
2024-04-18T13:33:26.145Z,10.54
2024-04-18T13:35:53.954Z,10.47
2024-04-18T13:38:22.168Z,10.45
2024-04-18T13:40:48.784Z,10.48
2024-04-18T13:43:15.539Z,10.62
2024-04-18T13:45:42.166Z,10.90
2024-04-18T13:48:11.612Z,11.18
2024-04-18T13:50:39.644Z,11.26
2024-04-18T13:53:08.717Z,11.19
2024-04-18T13:55:35.276Z,11.06
2024-04-18T13:58:02.002Z,10.96
2024-04-18T14:00:30.477Z,10.90
2024-04-18T14:02:58.320Z,10.86
2024-04-18T14:05:26.041Z,10.85
2024-04-18T14:07:52.580Z,10.90
2024-04-18T14:10:20.421Z,11.06
2024-04-18T14:12:48.336Z,11.19
2024-04-18T14:15:28.294Z,11.22
2024-04-18T14:18:14.903Z,11.36
2024-04-18T14:20:48.914Z,11.58
2024-04-18T14:23:16.656Z,11.67
2024-04-18T14:25:45.641Z,11.73
2024-04-18T14:28:23.157Z,11.74
2024-04-18T14:30:54.746Z,11.69
2024-04-18T14:33:21.635Z,11.55
2024-04-18T14:35:48.176Z,11.33
2024-04-18T14:38:15.629Z,11.13
2024-04-18T14:40:49.934Z,10.94
2024-04-18T14:43:27.341Z,10.81
2024-04-18T14:45:53.885Z,10.77
2024-04-18T14:48:21.583Z,10.78
2024-04-18T14:50:53.122Z,10.82
2024-04-18T14:53:26.630Z,10.81
2024-04-18T14:55:56.241Z,10.76
2024-04-18T14:58:23.192Z,10.77
2024-04-18T15:00:53.484Z,10.81
2024-04-18T15:03:21.239Z,10.88
2024-04-18T15:05:56.582Z,10.95
2024-04-18T15:08:24.658Z,11.02
2024-04-18T15:10:55.310Z,11.08
2024-04-18T15:13:24.252Z,11.14
2024-04-18T15:15:52.058Z,11.16
2024-04-18T15:18:20.175Z,11.21
2024-04-18T15:20:49.256Z,11.30
2024-04-18T15:23:16.158Z,11.34
2024-04-18T15:25:43.960Z,11.37
2024-04-18T15:28:10.702Z,11.33
2024-04-18T15:30:37.723Z,11.27
2024-04-18T15:33:05.392Z,11.20
2024-04-18T15:35:32.489Z,11.12
2024-04-18T15:38:01.413Z,11.06
2024-04-18T15:40:29.117Z,10.98
2024-04-18T15:42:56.943Z,10.89
2024-04-18T15:45:23.802Z,10.80
2024-04-18T15:47:52.917Z,10.73
2024-04-18T15:50:26.396Z,10.61
2024-04-18T15:52:54.180Z,10.48
2024-04-18T15:55:31.214Z,10.38
2024-04-18T15:57:58.561Z,10.26
2024-04-18T16:00:25.471Z,10.12
2024-04-18T16:02:54.134Z,10.01
2024-04-18T16:05:25.318Z,9.91
2024-04-18T16:07:52.912Z,9.80
2024-04-18T16:10:20.506Z,9.70
2024-04-18T16:12:50.781Z,9.55
2024-04-18T16:15:18.643Z,9.44
2024-04-18T16:17:46.931Z,9.37
2024-04-18T16:20:14.252Z,9.36
2024-04-18T16:22:41.612Z,9.27
2024-04-18T16:25:11.077Z,9.15
2024-04-18T16:27:37.564Z,9.11
2024-04-18T16:30:06.320Z,9.02
2024-04-18T16:32:34.000Z,8.99
2024-04-18T16:35:03.492Z,9.00
2024-04-18T16:37:42.207Z,9.05
2024-04-18T16:40:11.192Z,9.06
2024-04-18T16:42:41.648Z,9.05
2024-04-18T16:45:09.330Z,9.03
2024-04-18T16:47:38.284Z,9.00
2024-04-18T16:50:07.849Z,8.96
2024-04-18T16:52:36.780Z,8.89
2024-04-18T16:55:04.934Z,8.78
2024-04-18T16:57:35.435Z,8.72
2024-04-18T17:00:06.111Z,8.63
2024-04-18T17:02:40.412Z,8.56
2024-04-18T17:05:13.469Z,8.46
2024-04-18T17:07:44.112Z,8.33
2024-04-18T17:10:11.860Z,8.25
2024-04-18T17:12:39.913Z,8.18
2024-04-18T17:15:11.673Z,8.10
2024-04-18T17:17:40.618Z,8.05
2024-04-18T17:20:12.816Z,8.00
2024-04-18T17:22:43.031Z,7.94
2024-04-18T17:25:12.883Z,7.89
2024-04-18T17:27:40.671Z,7.82
2024-04-18T17:30:09.460Z,7.75
2024-04-18T17:32:39.146Z,7.68
2024-04-18T17:35:07.082Z,7.64
2024-04-18T17:37:37.775Z,7.61
2024-04-18T17:40:07.065Z,7.58
2024-04-18T17:42:35.766Z,7.55
2024-04-18T17:45:03.860Z,7.50
2024-04-18T17:47:38.742Z,7.45
2024-04-18T17:50:11.189Z,7.41
2024-04-18T17:52:38.941Z,7.33
2024-04-18T17:55:07.207Z,7.30
2024-04-18T17:57:37.477Z,7.24
2024-04-18T18:00:08.908Z,7.21
2024-04-18T18:02:40.021Z,7.18
2024-04-18T18:05:07.943Z,7.16
2024-04-18T18:07:38.344Z,7.12
2024-04-18T18:10:07.898Z,7.07
2024-04-18T18:12:38.466Z,7.03
2024-04-18T18:15:06.549Z,7.01
2024-04-18T18:17:37.251Z,6.98
2024-04-18T18:20:06.539Z,6.96
2024-04-18T18:22:34.458Z,6.94
2024-04-18T18:25:02.331Z,6.94
2024-04-18T18:27:32.312Z,6.90
2024-04-18T18:30:02.451Z,6.87
2024-04-18T18:32:32.366Z,6.87
2024-04-18T18:35:00.655Z,6.84
2024-04-18T18:37:31.677Z,6.84
2024-04-18T18:40:00.948Z,6.84
2024-04-18T18:42:31.048Z,6.82
2024-04-18T18:44:58.744Z,6.78
2024-04-18T18:47:26.940Z,6.77
2024-04-18T18:49:55.341Z,6.75
2024-04-18T18:52:23.832Z,6.72
2024-04-18T18:54:51.510Z,6.68
2024-04-18T18:57:22.387Z,6.67
2024-04-18T18:59:50.075Z,6.64
2024-04-18T19:02:18.564Z,6.63
2024-04-18T19:04:46.547Z,6.62
2024-04-18T19:07:21.373Z,6.60
2024-04-18T19:09:49.383Z,6.58
2024-04-18T19:12:17.034Z,6.58
2024-04-18T19:14:44.760Z,6.56
2024-04-18T19:17:14.733Z,6.54
2024-04-18T19:19:43.678Z,6.50
2024-04-18T19:22:11.962Z,6.49
2024-04-18T19:24:41.212Z,6.49
2024-04-18T19:27:08.854Z,6.47
2024-04-18T19:29:46.399Z,6.45
2024-04-18T19:32:20.500Z,6.44
2024-04-18T19:34:48.245Z,6.42
2024-04-18T19:37:20.147Z,6.41
2024-04-18T19:39:48.807Z,6.39
2024-04-18T19:42:17.686Z,6.37
2024-04-18T19:44:45.489Z,6.36
2024-04-18T19:47:14.659Z,6.35
2024-04-18T19:49:43.398Z,6.32
2024-04-18T19:52:11.631Z,6.31
2024-04-18T19:54:43.568Z,6.32
2024-04-18T19:57:11.478Z,6.32
2024-04-18T19:59:41.275Z,6.32
2024-04-18T20:02:11.935Z,6.30
2024-04-18T20:04:42.036Z,6.30
2024-04-18T20:07:11.610Z,6.28
2024-04-18T20:09:39.377Z,6.26
2024-04-18T20:12:10.003Z,6.25
2024-04-18T20:14:38.277Z,6.25
2024-04-18T20:17:10.051Z,6.24
2024-04-18T20:19:39.321Z,6.25
2024-04-18T20:22:08.533Z,6.26
2024-04-18T20:24:36.769Z,6.24
2024-04-18T20:27:09.554Z,6.22
2024-04-18T20:29:37.888Z,6.20
2024-04-18T20:32:06.324Z,6.16
2024-04-18T20:34:34.093Z,6.14
2024-04-18T20:37:04.166Z,6.13
2024-04-18T20:39:32.501Z,6.13
2024-04-18T20:42:01.710Z,6.11
2024-04-18T20:44:29.298Z,6.09
2024-04-18T20:46:57.455Z,6.07
2024-04-18T20:49:27.303Z,6.03
2024-04-18T20:51:57.688Z,6.01
2024-04-18T20:54:25.317Z,5.98
2024-04-18T20:56:58.576Z,5.94
2024-04-18T20:59:30.283Z,5.92
2024-04-18T21:02:02.035Z,5.90
2024-04-18T21:04:30.228Z,5.89
2024-04-18T21:06:57.873Z,5.87
2024-04-18T21:09:25.695Z,5.84
2024-04-18T21:11:53.896Z,5.80
2024-04-18T21:14:23.152Z,5.76
2024-04-18T21:16:52.276Z,5.73
2024-04-18T21:19:22.783Z,5.69
2024-04-18T21:21:53.476Z,5.64
2024-04-18T21:24:23.581Z,5.60
2024-04-18T21:26:51.823Z,5.57
2024-04-18T21:29:20.934Z,5.54
2024-04-18T21:31:49.389Z,5.52
2024-04-18T21:34:19.678Z,5.49
2024-04-18T21:36:48.452Z,5.46
2024-04-18T21:39:16.449Z,5.44
2024-04-18T21:41:46.933Z,5.44
2024-04-18T21:44:16.562Z,5.42
2024-04-18T21:46:45.571Z,5.40
2024-04-18T21:49:15.961Z,5.36
2024-04-18T21:51:43.697Z,5.31
2024-04-18T21:54:13.763Z,5.27
2024-04-18T21:56:41.325Z,5.23
2024-04-18T21:59:09.216Z,5.20
2024-04-18T22:01:36.876Z,5.17
2024-04-18T22:04:05.056Z,5.15
2024-04-18T22:06:34.695Z,5.12
2024-04-18T22:09:03.230Z,5.10
2024-04-18T22:11:31.994Z,5.09
2024-04-18T22:14:00.152Z,5.08
2024-04-18T22:16:29.883Z,5.04
2024-04-18T22:19:00.898Z,5.02
2024-04-18T22:21:29.048Z,4.99
2024-04-18T22:23:58.412Z,4.97
2024-04-18T22:26:26.552Z,4.94
2024-04-18T22:28:54.166Z,4.90
2024-04-18T22:31:22.031Z,4.87
2024-04-18T22:33:50.288Z,4.87
2024-04-18T22:36:18.435Z,4.85
2024-04-18T22:38:48.631Z,4.84
2024-04-18T22:41:17.659Z,4.84
2024-04-18T22:43:46.181Z,4.83
2024-04-18T22:46:14.113Z,4.79
2024-04-18T22:48:42.214Z,4.79
2024-04-18T22:51:10.065Z,4.77
2024-04-18T22:53:42.580Z,4.75
2024-04-18T22:56:10.632Z,4.73
2024-04-18T22:58:39.703Z,4.71
2024-04-18T23:01:11.537Z,4.71
2024-04-18T23:03:41.030Z,4.70
2024-04-18T23:06:08.879Z,4.69
2024-04-18T23:08:37.156Z,4.67
2024-04-18T23:11:06.119Z,4.63
2024-04-18T23:13:36.696Z,4.59
2024-04-18T23:16:06.146Z,4.54
2024-04-18T23:18:34.009Z,4.51
2024-04-18T23:21:01.922Z,4.49
2024-04-18T23:23:30.015Z,4.49
2024-04-18T23:25:58.067Z,4.46
2024-04-18T23:28:27.140Z,4.41
2024-04-18T23:30:56.882Z,4.43
2024-04-18T23:33:25.777Z,5.58
2024-04-18T23:35:55.852Z,7.44
2024-04-18T23:38:24.131Z,8.90
2024-04-18T23:40:51.931Z,9.86
2024-04-18T23:43:21.572Z,10.02
2024-04-18T23:45:49.845Z,9.09
2024-04-18T23:48:20.974Z,8.15
2024-04-18T23:50:49.785Z,7.43
2024-04-18T23:53:18.179Z,6.92
2024-04-18T23:55:49.819Z,6.55
2024-04-18T23:58:18.026Z,6.24
